Time;durP1;ratioP1;P1;durP2;ratioP2;P2;SDS_P1;SDS_P2;PMS_P1;PMS_P2;Temp;Humidity;BMP_temperature;BMP_pressure;BME280_temperature;BME280_humidity;BME280_pressure;Samples;Min_cycle;Max_cycle;Signal;HPM_P1;HPM_P2
2020/12/30 00:00:32;;;;;;;2.28;1.77;;;11.50;79.20;;;;;;5104341;28;20028;-45
2020/12/30 00:02:58;;;;;;;1.65;1.42;;;11.50;79.20;;;;;;5104360;28;20020;-43
2020/12/30 00:05:24;;;;;;;1.83;1.55;;;11.50;79.20;;;;;;5103921;28;20431;-44
2020/12/30 00:07:50;;;;;;;1.95;1.60;;;11.50;79.20;;;;;;5103921;28;20063;-44
2020/12/30 00:10:18;;;;;;;2.08;1.80;;;11.50;79.20;;;;;;5104285;28;20086;-45
2020/12/30 00:12:44;;;;;;;1.65;1.42;;;11.50;79.30;;;;;;5104049;28;20028;-44
2020/12/30 00:15:10;;;;;;;1.98;1.60;;;11.50;79.30;;;;;;5086099;28;20027;-44
2020/12/30 00:17:40;;;;;;;2.60;1.80;;;11.50;79.30;;;;;;5102730;28;20036;-44
2020/12/30 00:20:08;;;;;;;1.92;1.73;;;11.50;79.30;;;;;;5115986;28;20024;-46
2020/12/30 00:22:34;;;;;;;2.03;1.42;;;11.50;79.30;;;;;;5124214;28;20050;-44
2020/12/30 00:25:00;;;;;;;1.45;1.35;;;11.50;79.40;;;;;;5124151;28;20053;-44
2020/12/30 00:27:27;;;;;;;1.65;1.48;;;11.40;79.30;;;;;;5123931;28;20053;-44
2020/12/30 00:29:53;;;;;;;1.43;1.33;;;11.40;79.30;;;;;;5124334;28;20024;-44
2020/12/30 00:32:19;;;;;;;2.30;1.70;;;11.40;79.30;;;;;;5119472;28;20328;-44
2020/12/30 00:34:45;;;;;;;2.00;1.80;;;11.40;79.40;;;;;;5103410;28;20031;-44
2020/12/30 00:37:12;;;;;;;2.63;1.52;;;11.40;79.40;;;;;;5103147;28;20036;-44
2020/12/30 00:39:38;;;;;;;1.97;1.50;;;11.40;79.50;;;;;;5085775;28;20047;-44
2020/12/30 00:42:04;;;;;;;2.00;1.60;;;11.40;80.00;;;;;;5103519;28;20024;-44
2020/12/30 00:44:30;;;;;;;2.50;1.60;;;11.40;79.50;;;;;;5104200;28;20095;-44
2020/12/30 00:46:57;;;;;;;2.33;1.80;;;11.40;79.50;;;;;;5123710;28;20020;-44
2020/12/30 00:49:23;;;;;;;2.17;1.70;;;11.40;79.50;;;;;;5115175;28;20095;-44
2020/12/30 00:51:56;;;;;;;2.47;1.75;;;11.40;79.60;;;;;;5117547;28;20035;-44
2020/12/30 00:54:22;;;;;;;2.25;1.60;;;11.40;80.20;;;;;;5089102;28;20851;-45
2020/12/30 00:56:48;;;;;;;1.83;1.50;;;11.40;79.50;;;;;;5105087;28;20024;-45
2020/12/30 00:59:15;;;;;;;2.50;1.90;;;11.30;79.40;;;;;;5123681;28;20032;-45
2020/12/30 01:01:41;;;;;;;2.63;1.70;;;11.30;79.40;;;;;;5105391;28;20027;-44
2020/12/30 01:04:08;;;;;;;2.92;1.95;;;11.30;79.50;;;;;;5119456;28;20027;-44
2020/12/30 01:06:34;;;;;;;1.77;1.57;;;11.30;79.40;;;;;;5123318;28;20028;-44
2020/12/30 01:09:00;;;;;;;2.42;1.83;;;11.30;79.40;;;;;;5123442;28;20648;-44
2020/12/30 01:11:30;;;;;;;2.10;1.75;;;11.30;79.40;;;;;;5122971;28;20744;-45
2020/12/30 01:13:57;;;;;;;1.90;1.70;;;11.30;79.40;;;;;;5123393;28;20031;-45
2020/12/30 01:16:23;;;;;;;1.65;1.55;;;11.30;79.30;;;;;;5115024;28;20058;-44
2020/12/30 01:18:50;;;;;;;1.80;1.65;;;11.30;79.30;;;;;;5104092;28;20040;-45
2020/12/30 01:21:16;;;;;;;2.45;1.88;;;11.30;79.00;;;;;;5123262;28;20038;-44
2020/12/30 01:23:42;;;;;;;2.27;1.50;;;11.20;79.20;;;;;;5123403;28;20023;-45
2020/12/30 01:26:09;;;;;;;2.85;1.80;;;11.20;79.00;;;;;;5123499;28;20024;-45
2020/12/30 01:28:36;;;;;;;2.70;2.00;;;11.20;79.00;;;;;;5123041;28;20106;-45
2020/12/30 01:31:02;;;;;;;2.15;1.90;;;11.30;79.20;;;;;;5123239;28;20031;-44
2020/12/30 01:33:28;;;;;;;1.77;1.67;;;11.20;79.10;;;;;;5123256;28;20061;-45
2020/12/30 01:35:55;;;;;;;4.35;1.90;;;11.20;79.20;;;;;;5120881;28;20019;-45
2020/12/30 01:38:21;;;;;;;1.92;1.77;;;11.20;79.20;;;;;;5102435;28;20040;-44
2020/12/30 01:40:47;;;;;;;2.15;1.85;;;11.20;79.20;;;;;;5102921;28;20046;-44
2020/12/30 01:43:14;;;;;;;2.65;2.15;;;11.20;79.20;;;;;;5102785;28;20064;-44
2020/12/30 01:45:40;;;;;;;3.08;2.10;;;11.20;79.40;;;;;;5102723;28;20016;-45
2020/12/30 01:48:09;;;;;;;2.50;2.00;;;11.20;79.40;;;;;;5102150;28;20028;-44
2020/12/30 01:50:35;;;;;;;3.75;2.08;;;11.10;79.20;;;;;;5068237;28;20099;-46
2020/12/30 01:53:02;;;;;;;3.38;2.40;;;11.10;79.30;;;;;;5087010;28;20028;-44
2020/12/30 01:55:28;;;;;;;2.03;1.77;;;11.10;79.10;;;;;;5096247;28;20021;-44
2020/12/30 01:57:54;;;;;;;2.40;2.20;;;11.10;78.40;;;;;;5067618;28;20039;-44
2020/12/30 02:00:20;;;;;;;2.97;2.10;;;11.10;78.70;;;;;;5102494;28;20043;-45
2020/12/30 02:02:48;;;;;;;2.38;2.00;;;11.10;78.20;;;;;;5102418;28;20031;-44
2020/12/30 02:05:14;;;;;;;2.17;1.98;;;11.10;78.10;;;;;;5102592;28;20635;-44
2020/12/30 02:07:40;;;;;;;2.67;1.90;;;11.00;78.40;;;;;;5084069;28;20035;-44
2020/12/30 02:10:06;;;;;;;2.65;2.03;;;11.00;78.20;;;;;;5067388;28;20036;-45
2020/12/30 02:12:33;;;;;;;2.50;2.03;;;11.00;78.60;;;;;;5084400;28;20129;-44
2020/12/30 02:14:59;;;;;;;2.55;1.92;;;11.00;78.00;;;;;;5084280;28;20034;-44
2020/12/30 02:17:25;;;;;;;3.55;2.45;;;11.00;78.10;;;;;;5101971;28;20079;-46
2020/12/30 02:19:51;;;;;;;2.55;1.95;;;11.00;77.90;;;;;;5102223;28;20162;-44
2020/12/30 02:22:21;;;;;;;2.38;2.15;;;11.00;78.10;;;;;;5102304;28;20027;-44
2020/12/30 02:24:48;;;;;;;2.33;2.13;;;11.00;78.00;;;;;;5102387;28;20070;-44
2020/12/30 02:27:14;;;;;;;2.80;2.10;;;10.90;77.80;;;;;;5102302;28;20024;-46
2020/12/30 02:29:40;;;;;;;2.55;2.10;;;10.90;77.90;;;;;;5102098;28;20127;-45
2020/12/30 02:32:06;;;;;;;2.33;2.13;;;10.90;77.80;;;;;;5101959;28;20043;-44
2020/12/30 02:34:33;;;;;;;3.03;2.42;;;10.90;77.50;;;;;;5102145;28;20117;-44
2020/12/30 02:36:59;;;;;;;2.70;2.00;;;10.90;77.70;;;;;;5113594;28;20639;-44
2020/12/30 02:39:25;;;;;;;2.83;2.28;;;10.90;77.60;;;;;;5103923;28;20057;-44
2020/12/30 02:41:51;;;;;;;2.70;2.42;;;10.90;77.80;;;;;;5111743;28;20028;-44
2020/12/30 02:44:18;;;;;;;1.90;1.73;;;10.80;77.50;;;;;;5126365;28;20051;-45
2020/12/30 02:46:44;;;;;;;3.17;2.13;;;10.80;77.50;;;;;;5126103;28;20028;-45
2020/12/30 02:49:10;;;;;;;3.00;2.08;;;10.80;77.50;;;;;;5125870;28;20028;-45
2020/12/30 02:51:43;;;;;;;2.75;2.40;;;10.80;77.70;;;;;;5124917;28;20023;-45
2020/12/30 02:54:09;;;;;;;2.90;2.10;;;10.80;77.80;;;;;;5126109;28;20034;-44
2020/12/30 02:56:35;;;;;;;3.45;2.05;;;10.80;78.10;;;;;;5126069;28;20093;-48
2020/12/30 02:59:02;;;;;;;2.65;2.35;;;10.80;77.70;;;;;;5107482;28;20816;-44
2020/12/30 03:01:28;;;;;;;3.13;2.80;;;10.80;77.80;;;;;;5125679;28;20041;-44
2020/12/30 03:03:54;;;;;;;3.60;2.80;;;10.80;77.80;;;;;;5107756;28;20043;-44
2020/12/30 03:06:24;;;;;;;3.15;2.58;;;10.80;78.00;;;;;;5105278;28;20065;-44
2020/12/30 03:08:51;;;;;;;3.95;2.85;;;10.70;78.10;;;;;;5105058;28;20028;-44
2020/12/30 03:11:17;;;;;;;3.10;2.42;;;10.70;77.90;;;;;;5105061;28;20028;-44
2020/12/30 03:13:43;;;;;;;2.83;2.60;;;10.70;78.10;;;;;;5119090;28;20094;-44
2020/12/30 03:16:09;;;;;;;3.13;2.65;;;10.70;78.20;;;;;;5125551;28;20028;-44
2020/12/30 03:18:35;;;;;;;2.90;2.50;;;10.70;78.00;;;;;;5125166;28;20058;-44
2020/12/30 03:21:01;;;;;;;3.10;2.33;;;10.70;78.50;;;;;;5118851;28;20024;-44
2020/12/30 03:23:27;;;;;;;2.80;2.30;;;10.70;78.00;;;;;;5105130;28;20031;-44
2020/12/30 03:25:54;;;;;;;3.40;2.42;;;10.60;77.90;;;;;;5104918;28;20077;-44
2020/12/30 03:28:20;;;;;;;3.90;2.38;;;10.70;77.90;;;;;;5104925;28;20066;-44
2020/12/30 03:30:46;;;;;;;3.47;2.58;;;10.60;77.70;;;;;;5104597;28;20024;-44
2020/12/30 03:33:12;;;;;;;2.88;2.22;;;10.60;78.00;;;;;;5104727;28;20572;-44
2020/12/30 03:35:39;;;;;;;3.03;2.72;;;10.60;77.50;;;;;;5104914;28;20016;-44
2020/12/30 03:38:05;;;;;;;3.58;2.50;;;10.60;77.90;;;;;;5104426;28;20823;-44
2020/12/30 03:40:31;;;;;;;3.25;2.60;;;10.60;77.80;;;;;;5087122;28;20035;-45
2020/12/30 03:42:57;;;;;;;3.28;2.95;;;10.60;77.70;;;;;;5113284;28;20035;-44
2020/12/30 03:45:23;;;;;;;3.88;2.72;;;10.60;77.60;;;;;;5104382;28;20092;-44
2020/12/30 03:47:49;;;;;;;4.28;2.70;;;10.50;77.70;;;;;;5086300;28;20024;-44
2020/12/30 03:50:15;;;;;;;2.97;2.55;;;10.50;77.60;;;;;;5104524;28;20024;-44
2020/12/30 03:52:42;;;;;;;3.53;3.00;;;10.50;77.70;;;;;;5104005;28;20049;-44
2020/12/30 03:55:08;;;;;;;4.18;2.92;;;10.50;77.80;;;;;;5104546;28;20024;-45
2020/12/30 03:57:34;;;;;;;3.45;2.90;;;10.50;77.80;;;;;;5104070;28;20069;-44
2020/12/30 04:00:01;;;;;;;3.67;2.47;;;10.50;77.70;;;;;;5104229;28;20028;-44
2020/12/30 04:02:27;;;;;;;4.75;2.60;;;10.50;77.80;;;;;;5109580;28;20038;-44
2020/12/30 04:04:53;;;;;;;3.78;2.80;;;10.50;77.80;;;;;;5124507;28;20032;-44
2020/12/30 04:07:19;;;;;;;3.03;2.38;;;10.40;77.60;;;;;;5110371;28;20073;-44
2020/12/30 04:09:45;;;;;;;3.50;2.80;;;10.40;77.80;;;;;;5103883;28;20035;-44
2020/12/30 04:12:12;;;;;;;3.60;3.10;;;10.40;77.70;;;;;;5103913;28;20031;-44
2020/12/30 04:14:38;;;;;;;4.07;3.08;;;10.40;77.70;;;;;;5103974;28;20027;-44
2020/12/30 04:17:04;;;;;;;5.45;3.30;;;10.40;77.80;;;;;;5103842;28;20047;-44
2020/12/30 04:19:30;;;;;;;3.63;2.80;;;10.40;77.90;;;;;;5103941;28;20090;-43
2020/12/30 04:21:56;;;;;;;4.32;2.60;;;10.40;77.80;;;;;;5103456;28;20024;-44
2020/12/30 04:24:22;;;;;;;4.22;3.03;;;10.40;77.70;;;;;;5103692;28;20092;-44
2020/12/30 04:26:48;;;;;;;4.55;3.40;;;10.40;77.60;;;;;;5103831;28;20027;-44
2020/12/30 04:29:15;;;;;;;4.80;2.90;;;10.30;77.60;;;;;;5103624;28;20051;-44
2020/12/30 04:31:41;;;;;;;4.07;3.00;;;10.40;77.70;;;;;;5103560;28;20592;-44
2020/12/30 04:34:07;;;;;;;5.25;3.03;;;10.30;77.60;;;;;;5103439;28;20020;-44
2020/12/30 04:36:34;;;;;;;3.85;3.05;;;10.30;77.70;;;;;;5093003;28;20074;-43
2020/12/30 04:39:00;;;;;;;3.63;3.10;;;10.30;77.80;;;;;;5088852;28;20057;-43
2020/12/30 04:41:31;;;;;;;3.75;2.97;;;10.30;77.80;;;;;;5123686;28;20034;-43
2020/12/30 04:43:59;;;;;;;4.47;3.13;;;10.30;77.70;;;;;;5105520;28;20476;-44
2020/12/30 04:46:25;;;;;;;4.00;3.20;;;10.30;77.80;;;;;;5105625;28;20020;-44
2020/12/30 04:48:52;;;;;;;4.47;3.00;;;10.20;77.80;;;;;;5086670;28;20024;-44
2020/12/30 04:51:18;;;;;;;3.50;3.20;;;10.20;77.70;;;;;;5068236;28;20104;-45
2020/12/30 04:53:44;;;;;;;4.88;3.38;;;10.20;77.70;;;;;;5076570;28;20495;-43
2020/12/30 04:56:11;;;;;;;3.63;3.00;;;10.20;77.90;;;;;;5121933;28;20027;-44
2020/12/30 04:58:37;;;;;;;5.75;3.22;;;10.20;77.80;;;;;;5105000;28;20040;-44
2020/12/30 05:01:03;;;;;;;3.70;3.15;;;10.20;77.70;;;;;;5067869;28;20121;-44
2020/12/30 05:03:31;;;;;;;4.00;2.90;;;10.20;77.70;;;;;;5078386;28;20039;-44
2020/12/30 05:06:06;;;;;;;3.80;3.28;;;10.20;77.70;;;;;;5105568;28;20595;-45
2020/12/30 05:08:33;;;;;;;4.50;3.17;;;10.20;77.80;;;;;;5105025;28;20024;-44
2020/12/30 05:10:59;;;;;;;;;;;10.10;77.70;;;;;;5123989;28;20028;-43
2020/12/30 05:13:26;;;;;;;3.95;3.13;;;10.20;77.80;;;;;;5108204;28;19904;-44
2020/12/30 05:15:52;;;;;;;4.32;3.42;;;10.10;77.70;;;;;;5103203;28;20024;-44
2020/12/30 05:18:19;;;;;;;4.30;3.25;;;10.10;77.70;;;;;;5102600;28;20572;-44
2020/12/30 05:20:46;;;;;;;3.65;3.30;;;10.10;77.90;;;;;;5084844;28;20024;-44
2020/12/30 05:23:12;;;;;;;3.65;3.20;;;10.10;77.70;;;;;;5102826;28;20520;-44
2020/12/30 05:25:40;;;;;;;4.35;3.05;;;10.10;77.70;;;;;;5087347;28;20020;-44
2020/12/30 05:28:08;;;;;;;3.83;3.22;;;10.10;77.80;;;;;;5102805;28;20032;-44
2020/12/30 05:30:34;;;;;;;4.72;3.53;;;10.10;77.60;;;;;;5103037;28;20020;-44
2020/12/30 05:33:00;;;;;;;4.53;3.60;;;10.10;77.70;;;;;;5102471;28;20042;-44
2020/12/30 05:35:30;;;;;;;4.55;3.50;;;10.10;78.40;;;;;;5084904;28;20047;-44
2020/12/30 05:37:56;;;;;;;4.55;3.28;;;10.10;77.80;;;;;;5102493;28;20036;-45
2020/12/30 05:40:24;;;;;;;3.50;3.20;;;10.10;77.70;;;;;;5102779;28;20043;-44
2020/12/30 05:42:51;;;;;;;4.50;3.67;;;10.00;77.80;;;;;;5102532;28;20087;-44
2020/12/30 05:45:20;;;;;;;3.97;3.25;;;10.10;77.80;;;;;;5102811;28;20034;-44
2020/12/30 05:47:47;;;;;;;4.03;3.20;;;10.10;77.70;;;;;;5104289;28;20024;-44
2020/12/30 05:50:24;;;;;;;4.28;3.78;;;10.00;77.80;;;;;;5110910;28;20036;-44
2020/12/30 05:52:54;;;;;;;2.35;2.03;;;10.00;77.70;;;;;;5068777;28;20037;-44
2020/12/30 05:55:26;;;;;;;4.70;3.40;;;10.00;77.60;;;;;;5102869;28;20083;-44
2020/12/30 05:57:53;;;;;;;5.15;3.45;;;10.00;77.60;;;;;;5102517;28;20040;-44
2020/12/30 06:00:19;;;;;;;3.95;3.47;;;10.00;77.70;;;;;;5102742;28;20028;-43
2020/12/30 06:02:46;;;;;;;4.32;3.55;;;10.00;77.70;;;;;;5110552;28;20031;-45
2020/12/30 06:05:12;;;;;;;;;;;10.00;77.80;;;;;;5105019;28;20872;-43
2020/12/30 06:07:43;;;;;;;4.25;3.25;;;10.00;78.60;;;;;;5106057;28;19908;-45
2020/12/30 06:10:10;;;;;;;4.55;3.70;;;10.00;77.80;;;;;;5084767;28;20032;-44
2020/12/30 06:12:53;;;;;;;4.40;3.67;;;10.00;77.80;;;;;;5102392;28;20036;-44
2020/12/30 06:15:27;;;;;;;3.97;3.28;;;10.00;77.90;;;;;;5102530;28;20077;-43
2020/12/30 06:18:01;;;;;;;3.92;2.95;;;10.00;77.80;;;;;;5087470;28;20106;-43
2020/12/30 06:20:36;;;;;;;4.50;3.97;;;10.00;77.80;;;;;;5088130;28;20032;-44
2020/12/30 06:23:12;;;;;;;3.90;3.28;;;9.90;77.70;;;;;;5106263;28;20071;-44
2020/12/30 06:25:39;;;;;;;4.40;3.30;;;10.00;78.50;;;;;;5106385;28;20031;-44
2020/12/30 06:28:13;;;;;;;4.55;3.38;;;10.00;77.80;;;;;;5087827;28;20563;-44
2020/12/30 06:30:41;;;;;;;5.68;3.67;;;10.00;77.70;;;;;;5106231;28;20063;-44
2020/12/30 06:33:07;;;;;;;3.80;3.38;;;10.00;77.80;;;;;;5105766;28;20028;-44
2020/12/30 06:35:35;;;;;;;3.70;3.30;;;10.00;77.90;;;;;;5071236;28;20088;-45
2020/12/30 06:38:20;;;;;;;4.75;3.78;;;9.90;77.80;;;;;;5107743;28;20378;-44
2020/12/30 06:40:59;;;;;;;3.95;3.25;;;9.90;77.70;;;;;;5126346;28;20015;-44
2020/12/30 06:43:46;;;;;;;3.70;3.15;;;9.90;77.70;;;;;;5125980;28;20034;-44
2020/12/30 06:46:13;;;;;;;4.38;3.65;;;9.90;77.80;;;;;;5114248;28;20053;-43
2020/12/30 06:48:58;;;;;;;4.60;3.97;;;9.90;77.90;;;;;;5087533;28;20032;-44
2020/12/30 06:51:25;;;;;;;3.40;3.10;;;9.90;77.80;;;;;;5114045;28;20028;-45
2020/12/30 06:53:55;;;;;;;5.03;3.50;;;9.90;77.80;;;;;;5087441;28;20081;-45
2020/12/30 06:56:42;;;;;;;3.83;3.40;;;9.90;77.90;;;;;;5088068;28;20032;-44
2020/12/30 06:59:17;;;;;;;3.70;3.33;;;9.90;77.90;;;;;;5105552;28;20113;-43
2020/12/30 07:01:54;;;;;;;4.80;3.50;;;9.90;77.90;;;;;;5105550;28;20036;-45
2020/12/30 07:04:24;;;;;;;5.10;3.30;;;9.90;78.00;;;;;;5087199;28;20023;-43
2020/12/30 07:06:52;;;;;;;3.90;3.28;;;9.90;77.90;;;;;;5109005;28;20046;-43
2020/12/30 07:09:29;;;;;;;4.18;3.42;;;9.90;77.90;;;;;;5105477;28;20103;-43
2020/12/30 07:11:55;;;;;;;5.80;3.53;;;9.90;77.90;;;;;;5088548;28;20024;-44
2020/12/30 07:14:25;;;;;;;4.70;3.63;;;9.90;77.90;;;;;;5105063;28;20028;-44
2020/12/30 07:16:55;;;;;;;4.22;3.83;;;9.90;77.90;;;;;;5105211;28;20131;-44
2020/12/30 07:19:23;;;;;;;4.13;3.50;;;9.90;77.90;;;;;;5105047;28;20070;-44
2020/12/30 07:21:56;;;;;;;5.63;3.65;;;9.90;78.00;;;;;;5105351;28;20024;-44
2020/12/30 07:24:41;;;;;;;4.50;3.70;;;9.90;77.90;;;;;;5104835;28;20039;-44
2020/12/30 07:27:11;;;;;;;4.32;3.40;;;9.90;77.90;;;;;;5104782;28;20492;-44
2020/12/30 07:29:38;;;;;;;3.80;3.30;;;9.90;77.90;;;;;;5116663;28;20079;-44
2020/12/30 07:32:05;;;;;;;4.90;3.88;;;9.90;78.00;;;;;;5123141;28;20026;-43
2020/12/30 07:34:34;;;;;;;3.67;3.30;;;9.90;78.00;;;;;;5086362;28;20032;-44
2020/12/30 07:37:00;;;;;;;4.95;3.75;;;9.90;77.90;;;;;;5104851;28;20114;-43
2020/12/30 07:39:34;;;;;;;4.07;3.50;;;9.90;78.00;;;;;;5104649;28;20032;-43
2020/12/30 07:42:01;;;;;;;4.10;3.30;;;9.90;78.00;;;;;;5106212;28;20023;-43
2020/12/30 07:44:27;;;;;;;5.13;3.88;;;9.90;78.00;;;;;;5115817;28;20062;-43
2020/12/30 07:47:03;;;;;;;4.10;3.58;;;9.90;78.00;;;;;;5125265;28;20024;-43
2020/12/30 07:49:30;;;;;;;4.35;3.60;;;9.90;78.00;;;;;;5099704;28;20039;-44
2020/12/30 07:51:57;;;;;;;4.50;3.70;;;9.90;78.00;;;;;;5104581;28;20028;-43
2020/12/30 07:54:24;;;;;;;4.47;3.83;;;9.90;78.00;;;;;;5086309;28;20119;-44
2020/12/30 07:56:50;;;;;;;7.30;3.78;;;9.90;78.00;;;;;;5104658;28;20024;-44
2020/12/30 07:59:24;;;;;;;3.45;3.15;;;9.90;78.00;;;;;;5104519;28;20042;-44
2020/12/30 08:01:57;;;;;;;6.05;4.15;;;9.90;78.00;;;;;;5104938;28;20038;-44
2020/12/30 08:04:23;;;;;;;4.80;3.55;;;9.90;78.00;;;;;;5124545;28;20032;-43
2020/12/30 08:06:49;;;;;;;4.93;3.63;;;9.90;78.10;;;;;;5114880;28;20024;-44
2020/12/30 08:09:16;;;;;;;5.25;3.83;;;9.90;78.00;;;;;;5104365;28;20098;-44
2020/12/30 08:11:49;;;;;;;4.43;3.73;;;9.90;78.00;;;;;;5104308;28;20052;-43
2020/12/30 08:14:17;;;;;;;4.47;3.50;;;9.90;78.00;;;;;;5104047;28;20515;-45
2020/12/30 08:16:57;;;;;;;3.95;3.55;;;9.90;78.00;;;;;;5104305;28;20798;-43
2020/12/30 08:19:32;;;;;;;4.65;3.78;;;9.90;78.10;;;;;;5104029;28;20532;-44
2020/12/30 08:22:15;;;;;;;4.80;3.95;;;9.90;78.80;;;;;;5104146;28;20046;-44
2020/12/30 08:24:46;;;;;;;3.90;3.50;;;9.90;78.10;;;;;;5068844;28;20024;-43
2020/12/30 08:27:14;;;;;;;4.18;3.60;;;9.90;78.10;;;;;;5104347;28;20027;-44
2020/12/30 08:29:42;;;;;;;4.47;3.65;;;9.90;78.10;;;;;;5103869;28;20024;-43
2020/12/30 08:32:26;;;;;;;5.05;3.80;;;9.90;78.10;;;;;;5104003;28;20017;-43
2020/12/30 08:34:56;;;;;;;6.57;3.85;;;9.90;78.10;;;;;;5103609;28;20036;-43
2020/12/30 08:37:29;;;;;;;4.78;3.78;;;9.90;78.10;;;;;;5100422;28;20031;-45
2020/12/30 08:40:10;;;;;;;4.53;3.45;;;9.90;78.10;;;;;;5123356;28;20031;-45
2020/12/30 08:42:54;;;;;;;4.60;3.50;;;9.90;78.20;;;;;;5106073;28;20563;-44
2020/12/30 08:45:33;;;;;;;4.38;3.97;;;9.90;78.10;;;;;;5124070;28;20020;-44
2020/12/30 08:48:14;;;;;;;5.10;4.13;;;9.90;78.20;;;;;;5105441;28;20030;-45
2020/12/30 08:50:40;;;;;;;4.78;3.80;;;9.90;78.30;;;;;;5083140;28;20028;-43
2020/12/30 08:53:06;;;;;;;5.25;3.75;;;9.90;78.20;;;;;;5103622;28;20476;-48
2020/12/30 08:55:32;;;;;;;4.35;3.38;;;9.90;78.30;;;;;;5103323;28;20032;-43
2020/12/30 08:57:59;;;;;;;4.28;3.35;;;9.90;78.30;;;;;;5121140;28;20032;-44
2020/12/30 09:00:26;;;;;;;5.15;3.65;;;9.90;78.40;;;;;;5121754;28;20039;-43
2020/12/30 09:02:55;;;;;;;4.10;3.50;;;9.90;78.40;;;;;;5114786;28;20028;-44
2020/12/30 09:05:39;;;;;;;4.05;3.42;;;9.90;78.40;;;;;;5068310;28;20095;-44
2020/12/30 09:08:25;;;;;;;4.22;3.70;;;9.90;78.40;;;;;;5103466;28;20594;-43
2020/12/30 09:10:51;;;;;;;4.55;3.63;;;9.90;78.50;;;;;;5085313;28;20032;-44
2020/12/30 09:13:19;;;;;;;3.97;3.33;;;9.90;78.50;;;;;;5103487;28;20028;-44
2020/12/30 09:15:47;;;;;;;4.90;3.28;;;9.90;78.60;;;;;;5103062;28;20020;-43
2020/12/30 09:18:13;;;;;;;4.10;3.70;;;9.90;78.50;;;;;;5103008;28;20047;-43
2020/12/30 09:20:40;;;;;;;6.10;3.80;;;9.90;78.50;;;;;;5103234;28;20016;-44
2020/12/30 09:23:07;;;;;;;2.97;2.50;;;9.90;78.70;;;;;;5103256;28;20443;-44
2020/12/30 09:25:35;;;;;;;4.13;3.50;;;9.90;78.60;;;;;;5102842;28;20485;-44
2020/12/30 09:28:12;;;;;;;5.07;4.07;;;9.90;78.70;;;;;;5103313;28;20035;-44
2020/12/30 09:30:38;;;;;;;4.28;3.83;;;9.90;78.70;;;;;;5084951;28;20035;-44
2020/12/30 09:33:22;;;;;;;5.22;3.85;;;9.90;78.70;;;;;;5103040;28;20030;-43
2020/12/30 09:35:49;;;;;;;3.83;3.38;;;9.90;78.80;;;;;;5102719;28;20032;-43
2020/12/30 09:38:25;;;;;;;4.50;3.63;;;9.90;78.80;;;;;;5094301;28;20035;-44
2020/12/30 09:40:52;;;;;;;5.20;3.78;;;9.90;78.80;;;;;;5101295;28;20079;-45
2020/12/30 09:43:19;;;;;;;3.97;3.35;;;9.90;78.80;;;;;;5117901;28;20055;-45
2020/12/30 09:45:47;;;;;;;5.10;3.40;;;9.90;78.80;;;;;;5122933;28;20031;-44
2020/12/30 09:48:14;;;;;;;4.00;3.50;;;9.90;78.80;;;;;;5123487;28;20043;-44
2020/12/30 09:50:41;;;;;;;4.28;3.75;;;9.90;78.80;;;;;;5107619;28;20025;-43
2020/12/30 09:53:07;;;;;;;2.90;2.42;;;9.90;78.80;;;;;;5107073;28;20017;-44
2020/12/30 09:55:33;;;;;;;5.10;4.05;;;9.90;78.80;;;;;;5106745;28;20028;-43
2020/12/30 09:58:00;;;;;;;5.20;3.55;;;9.90;78.80;;;;;;5106666;28;20041;-43
2020/12/30 10:00:26;;;;;;;4.00;3.50;;;9.90;78.80;;;;;;5121399;28;20159;-43
2020/12/30 10:02:53;;;;;;;3.70;3.25;;;10.00;78.90;;;;;;5116089;28;20019;-43
2020/12/30 10:05:19;;;;;;;3.85;3.38;;;10.00;78.90;;;;;;5127271;28;20106;-44
2020/12/30 10:07:45;;;;;;;4.63;3.65;;;9.90;78.80;;;;;;5108865;28;20086;-44
2020/12/30 10:10:11;;;;;;;4.78;3.88;;;9.90;78.90;;;;;;5106620;28;20020;-43
2020/12/30 10:12:40;;;;;;;4.10;3.30;;;9.90;78.90;;;;;;5106768;28;20024;-44
2020/12/30 10:15:07;;;;;;;4.18;3.55;;;9.90;78.90;;;;;;5088893;28;20096;-43
2020/12/30 10:17:34;;;;;;;4.32;3.60;;;10.00;78.90;;;;;;5106040;28;20074;-43
2020/12/30 10:20:00;;;;;;;4.67;3.57;;;9.90;78.90;;;;;;5106624;28;20507;-44
2020/12/30 10:22:26;;;;;;;5.97;3.53;;;10.00;79.00;;;;;;5106724;28;20024;-43
2020/12/30 10:24:52;;;;;;;6.00;3.65;;;10.00;78.90;;;;;;5106340;28;20035;-44
2020/12/30 10:27:19;;;;;;;5.40;3.35;;;10.00;78.90;;;;;;5106260;28;20024;-43
2020/12/30 10:29:45;;;;;;;7.10;3.83;;;10.00;78.90;;;;;;5088342;28;20047;-44
2020/12/30 10:32:11;;;;;;;3.92;3.15;;;10.00;78.90;;;;;;5106389;28;20031;-44
2020/12/30 10:34:37;;;;;;;4.57;3.67;;;10.00;78.90;;;;;;5106337;28;20407;-43
2020/12/30 10:37:04;;;;;;;5.13;3.65;;;10.00;78.90;;;;;;5117632;28;20042;-43
2020/12/30 10:39:31;;;;;;;4.03;3.30;;;10.00;78.90;;;;;;5126437;28;20051;-43
2020/12/30 10:41:57;;;;;;;5.85;3.92;;;10.00;78.90;;;;;;5126628;28;20036;-43
2020/12/30 10:44:24;;;;;;;3.00;2.65;;;10.00;78.90;;;;;;5126593;28;20032;-43
2020/12/30 10:46:50;;;;;;;5.20;3.60;;;10.00;78.90;;;;;;5126404;28;20091;-44
2020/12/30 10:49:17;;;;;;;5.13;3.95;;;10.00;79.00;;;;;;5123001;28;20027;-43
2020/12/30 10:51:46;;;;;;;5.15;3.90;;;10.00;78.90;;;;;;5106352;28;20028;-45
2020/12/30 10:54:13;;;;;;;8.02;3.88;;;10.00;78.90;;;;;;5105825;28;20571;-44
2020/12/30 10:56:40;;;;;;;5.63;3.13;;;10.00;78.90;;;;;;5088736;28;20034;-43
2020/12/30 10:59:06;;;;;;;6.07;3.50;;;10.00;79.00;;;;;;5126092;28;20111;-44
2020/12/30 11:01:32;;;;;;;4.95;3.47;;;10.00;79.00;;;;;;5122399;28;20028;-44
2020/12/30 11:03:58;;;;;;;6.82;3.55;;;10.00;78.90;;;;;;5107207;28;20095;-44
2020/12/30 11:06:24;;;;;;;7.03;3.78;;;10.00;79.00;;;;;;5105811;28;20032;-43
2020/12/30 11:08:50;;;;;;;6.55;3.65;;;10.00;79.00;;;;;;5105040;28;20021;-43
2020/12/30 11:11:16;;;;;;;6.53;4.22;;;10.00;79.00;;;;;;5105763;28;20027;-44
2020/12/30 11:13:42;;;;;;;4.55;3.47;;;10.00;79.10;;;;;;5105728;28;20435;-43
2020/12/30 11:16:09;;;;;;;6.22;3.17;;;10.00;79.00;;;;;;5105409;28;20044;-44
2020/12/30 11:18:35;;;;;;;4.15;3.58;;;10.00;79.00;;;;;;5105204;28;20052;-44
2020/12/30 11:21:01;;;;;;;3.92;3.38;;;10.00;79.10;;;;;;5105156;28;20031;-44
2020/12/30 11:23:28;;;;;;;3.92;3.53;;;10.00;79.10;;;;;;5105295;28;20028;-44
2020/12/30 11:25:54;;;;;;;5.10;3.55;;;10.00;79.10;;;;;;5105334;28;20024;-44
2020/12/30 11:28:20;;;;;;;5.37;4.07;;;10.00;79.40;;;;;;5105113;28;20035;-45
2020/12/30 11:30:47;;;;;;;3.67;3.33;;;10.00;79.20;;;;;;5105268;28;20096;-44
2020/12/30 11:33:13;;;;;;;5.47;3.67;;;10.00;79.10;;;;;;5115870;28;20048;-43
2020/12/30 11:35:39;;;;;;;4.07;3.42;;;10.00;79.10;;;;;;5105078;28;20028;-45
2020/12/30 11:38:06;;;;;;;4.40;3.45;;;10.00;79.10;;;;;;5104993;28;20040;-44
2020/12/30 11:40:32;;;;;;;3.92;3.47;;;10.10;79.20;;;;;;5105058;28;20020;-43
2020/12/30 11:42:59;;;;;;;6.20;3.42;;;10.00;79.90;;;;;;5105058;28;20039;-44
2020/12/30 11:45:25;;;;;;;4.60;3.40;;;10.10;79.30;;;;;;5104626;28;20024;-44
2020/12/30 11:47:51;;;;;;;4.72;3.75;;;10.00;79.20;;;;;;5104766;28;20032;-43
2020/12/30 11:50:17;;;;;;;4.30;3.70;;;10.00;79.20;;;;;;5109076;28;20088;-44
2020/12/30 11:52:43;;;;;;;3.58;3.03;;;10.10;79.30;;;;;;5106874;28;20115;-43
2020/12/30 11:55:10;;;;;;;3.78;3.40;;;10.00;79.20;;;;;;5124791;28;20024;-44
2020/12/30 11:57:36;;;;;;;3.92;3.50;;;10.00;79.60;;;;;;5125257;28;20116;-44
2020/12/30 12:00:09;;;;;;;4.53;3.60;;;10.10;79.30;;;;;;5125115;28;20042;-45
2020/12/30 12:02:35;;;;;;;4.32;3.33;;;10.00;79.20;;;;;;5118421;28;20032;-44
2020/12/30 12:05:02;;;;;;;4.97;3.83;;;10.00;79.30;;;;;;5104289;28;20031;-44
2020/12/30 12:07:28;;;;;;;7.65;3.67;;;10.10;79.30;;;;;;5104339;28;20036;-43
2020/12/30 12:09:55;;;;;;;6.22;3.45;;;10.10;79.30;;;;;;5104462;28;20028;-43
2020/12/30 12:12:21;;;;;;;5.60;3.45;;;10.00;79.30;;;;;;5104376;28;20028;-43
2020/12/30 12:14:47;;;;;;;4.07;3.63;;;10.00;79.30;;;;;;5104219;28;20020;-43
2020/12/30 12:17:13;;;;;;;5.35;3.58;;;10.10;79.50;;;;;;5104281;28;20052;-44
2020/12/30 12:19:40;;;;;;;4.55;3.63;;;10.10;79.30;;;;;;5104190;28;20040;-43
2020/12/30 12:22:06;;;;;;;4.68;3.33;;;10.00;79.20;;;;;;5069557;28;20027;-45
2020/12/30 12:24:32;;;;;;;6.07;3.35;;;10.10;79.30;;;;;;5104078;28;20516;-44
2020/12/30 12:26:58;;;;;;;5.90;3.80;;;10.10;79.30;;;;;;5103896;28;20032;-44
2020/12/30 12:29:36;;;;;;;5.07;3.60;;;10.10;79.30;;;;;;5104147;28;20538;-44
2020/12/30 12:32:06;;;;;;;4.65;3.38;;;10.10;79.30;;;;;;5106262;28;20035;-44
2020/12/30 12:34:36;;;;;;;4.70;3.65;;;10.10;79.30;;;;;;5124123;28;20084;-44
2020/12/30 12:37:03;;;;;;;5.55;4.18;;;10.10;79.30;;;;;;5112729;28;20119;-44
2020/12/30 12:39:29;;;;;;;4.95;3.72;;;10.10;79.30;;;;;;5069288;28;20035;-44
2020/12/30 12:41:56;;;;;;;4.85;3.53;;;10.10;79.30;;;;;;5104079;28;20823;-44
2020/12/30 12:44:23;;;;;;;3.90;3.50;;;10.10;79.30;;;;;;5103586;28;20032;-44
2020/12/30 12:46:49;;;;;;;4.03;3.53;;;10.10;79.50;;;;;;5103853;28;20818;-44
2020/12/30 12:49:15;;;;;;;4.00;3.17;;;10.10;79.30;;;;;;5090565;28;20028;-44
2020/12/30 12:52:08;;;;;;;4.85;3.92;;;10.10;79.50;;;;;;5124186;28;20047;-44
2020/12/30 12:54:34;;;;;;;6.97;3.55;;;10.10;79.40;;;;;;5093507;28;20459;-44